Time;durP1;ratioP1;P1;durP2;ratioP2;P2;SDS_P1;SDS_P2;PMS_P1;PMS_P2;Temp;Humidity;BMP_temperature;BMP_pressure;BME280_temperature;BME280_humidity;BME280_pressure;Samples;Min_cycle;Max_cycle;Signal;HPM_P1;HPM_P2
2022/10/20 00:01:26;;;;;;;10.02;3.00;;;;;;;;;;5072621;28;20052;-81
2022/10/20 00:03:53;;;;;;;8.85;3.40;;;;;;;;;;5071189;28;20540;-80
2022/10/20 00:06:26;;;;;;;6.57;2.90;;;;;;;;;;5073401;28;20049;-79
2022/10/20 00:08:54;;;;;;;7.97;3.67;;;;;;;;;;5072230;28;20049;-79
2022/10/20 00:11:20;;;;;;;8.57;3.40;;;;;;;;;;5071914;28;20416;-81
2022/10/20 00:13:48;;;;;;;7.18;3.20;;;;;;;;;;5072337;28;20048;-80
2022/10/20 00:16:15;;;;;;;5.80;3.35;;;;;;;;;;5072615;28;20067;-80
2022/10/20 00:18:41;;;;;;;9.43;3.20;;;;;;;;;;5070744;28;20051;-80
2022/10/20 00:21:09;;;;;;;5.30;3.00;;;;;;;;;;5072799;28;20044;-80
2022/10/20 00:23:36;;;;;;;7.57;3.08;;;;;;;;;;5073909;28;20049;-81
2022/10/20 00:26:22;;;;;;;6.18;3.30;;;;;;;;;;5074702;28;20041;-81
2022/10/20 00:28:49;;;;;;;9.85;3.40;;;;;;;;;;5072780;28;20188;-81
2022/10/20 00:31:16;;;;;;;8.05;3.15;;;;;;;;;;5073013;28;20056;-81
2022/10/20 00:33:42;;;;;;;6.72;3.45;;;;;;;;;;5075427;28;20052;-81
2022/10/20 00:36:11;;;;;;;7.65;3.33;;;;;;;;;;5081228;28;20496;-82
2022/10/20 00:38:37;;;;;;;7.75;3.60;;;;;;;;;;5080628;28;20139;-82
2022/10/20 00:41:04;;;;;;;6.25;3.08;;;;;;;;;;5081781;28;20044;-81
2022/10/20 00:43:42;;;;;;;5.93;3.30;;;;;;;;;;5081159;28;20055;-80
2022/10/20 00:46:13;;;;;;;5.47;3.20;;;;;;;;;;5081175;28;20041;-80
2022/10/20 00:48:41;;;;;;;8.60;3.47;;;;;;;;;;5078532;28;20060;-80
2022/10/20 00:51:08;;;;;;;7.10;3.70;;;;;;;;;;5078684;28;20057;-81
2022/10/20 00:53:34;;;;;;;5.72;3.22;;;;;;;;;;5072898;28;20052;-81
2022/10/20 00:56:01;;;;;;;4.88;3.20;;;;;;;;;;5073874;28;20048;-82
2022/10/20 00:58:27;;;;;;;5.50;3.13;;;;;;;;;;5073345;28;20055;-81
2022/10/20 01:00:55;;;;;;;6.07;3.30;;;;;;;;;;5073314;28;20059;-79
2022/10/20 01:03:23;;;;;;;6.63;3.38;;;;;;;;;;5072648;28;20066;-82
2022/10/20 01:05:50;;;;;;;5.95;3.28;;;;;;;;;;5077451;28;20041;-79
2022/10/20 01:08:16;;;;;;;4.63;3.22;;;;;;;;;;5070608;28;20070;-80
2022/10/20 01:11:05;;;;;;;4.85;3.33;;;;;;;;;;5070536;28;20059;-81
2022/10/20 01:13:49;;;;;;;8.43;3.22;;;;;;;;;;5070607;28;20056;-81
2022/10/20 01:16:22;;;;;;;8.77;3.25;;;;;;;;;;5071696;28;20400;-79
2022/10/20 01:18:56;;;;;;;11.60;4.07;;;;;;;;;;5069367;28;20413;-78
2022/10/20 01:21:34;;;;;;;9.68;3.70;;;;;;;;;;5074796;28;20051;-81
2022/10/20 01:24:13;;;;;;;5.60;3.20;;;;;;;;;;5074199;28;20049;-78
2022/10/20 01:26:39;;;;;;;8.18;3.65;;;;;;;;;;5073084;28;20607;-81
2022/10/20 01:29:12;;;;;;;10.18;3.70;;;;;;;;;;5071445;28;20056;-79
2022/10/20 01:31:47;;;;;;;9.40;3.58;;;;;;;;;;5072871;28;20049;-80
2022/10/20 01:34:25;;;;;;;8.05;3.10;;;;;;;;;;5053314;28;20044;-80
2022/10/20 01:36:57;;;;;;;8.95;3.30;;;;;;;;;;5083415;28;20051;-80
2022/10/20 01:39:33;;;;;;;7.93;3.92;;;;;;;;;;5090049;28;20496;-79
2022/10/20 01:42:02;;;;;;;10.32;3.83;;;;;;;;;;5092856;28;20044;-80
2022/10/20 01:44:30;;;;;;;9.32;3.90;;;;;;;;;;5094353;28;20038;-79
2022/10/20 01:46:57;;;;;;;7.32;3.47;;;;;;;;;;5078549;28;20032;-81
2022/10/20 01:49:24;;;;;;;7.57;3.58;;;;;;;;;;5096084;28;20051;-81
2022/10/20 01:51:51;;;;;;;11.15;4.00;;;;;;;;;;5078366;28;20092;-82
2022/10/20 01:54:20;;;;;;;7.10;4.15;;;;;;;;;;5090731;28;20049;-80
2022/10/20 01:57:01;;;;;;;7.07;3.72;;;;;;;;;;5088347;28;20223;-81
2022/10/20 01:59:43;;;;;;;9.25;4.20;;;;;;;;;;5088686;28;20146;-81
2022/10/20 02:02:22;;;;;;;9.50;4.13;;;;;;;;;;5074668;28;20055;-81
2022/10/20 02:04:55;;;;;;;10.25;4.07;;;;;;;;;;5070289;28;20054;-81
2022/10/20 02:07:23;;;;;;;12.18;4.47;;;;;;;;;;5068949;28;20041;-80
2022/10/20 02:09:52;;;;;;;8.20;4.13;;;;;;;;;;5070261;28;20128;-81
2022/10/20 02:12:25;;;;;;;8.07;4.72;;;;;;;;;;5068371;28;20055;-80
2022/10/20 02:14:54;;;;;;;8.70;4.43;;;;;;;;;;5070067;28;20048;-81
2022/10/20 02:17:20;;;;;;;6.68;4.13;;;;;;;;;;5067691;28;20059;-81
2022/10/20 02:19:48;;;;;;;10.07;4.57;;;;;;;;;;5070122;28;20135;-80
2022/10/20 02:22:15;;;;;;;7.90;4.65;;;;;;;;;;5070826;28;20222;-79
2022/10/20 02:24:43;;;;;;;9.32;4.47;;;;;;;;;;5070784;28;20045;-80
2022/10/20 02:27:12;;;;;;;7.18;4.50;;;;;;;;;;5068697;28;20040;-80
2022/10/20 02:29:42;;;;;;;10.35;4.35;;;;;;;;;;5070051;28;20631;-80
2022/10/20 02:32:09;;;;;;;11.00;4.82;;;;;;;;;;5071257;28;20053;-80
2022/10/20 02:34:36;;;;;;;9.45;4.55;;;;;;;;;;5069155;28;20067;-80
2022/10/20 02:37:07;;;;;;;13.00;5.43;;;;;;;;;;5069636;28;20415;-80
2022/10/20 02:39:34;;;;;;;11.88;5.55;;;;;;;;;;5070208;28;20040;-80
2022/10/20 02:42:00;;;;;;;13.90;6.47;;;;;;;;;;5070466;28;20045;-81
2022/10/20 02:44:26;;;;;;;12.85;6.38;;;;;;;;;;5070062;28;20052;-81
2022/10/20 02:46:53;;;;;;;12.50;6.40;;;;;;;;;;5070317;28;20049;-80
2022/10/20 02:49:20;;;;;;;15.77;6.15;;;;;;;;;;5067993;28;20528;-80
2022/10/20 02:51:46;;;;;;;11.60;6.05;;;;;;;;;;5070901;28;20049;-80
2022/10/20 02:54:13;;;;;;;9.73;5.80;;;;;;;;;;5070520;28;20450;-81
2022/10/20 02:56:39;;;;;;;12.88;5.93;;;;;;;;;;5070015;28;20052;-80
2022/10/20 02:59:05;;;;;;;11.48;5.93;;;;;;;;;;5070141;28;20099;-80
2022/10/20 03:01:32;;;;;;;13.85;5.93;;;;;;;;;;5071045;28;20048;-81
2022/10/20 03:03:58;;;;;;;15.32;6.05;;;;;;;;;;5068506;28;20102;-80
2022/10/20 03:06:25;;;;;;;10.73;6.13;;;;;;;;;;5070755;28;20064;-78
2022/10/20 03:08:51;;;;;;;14.40;5.97;;;;;;;;;;5070807;28;20052;-81
2022/10/20 03:11:18;;;;;;;14.95;6.20;;;;;;;;;;5071787;28;20048;-81
2022/10/20 03:13:44;;;;;;;9.55;5.90;;;;;;;;;;5052705;28;20059;-81
2022/10/20 03:16:11;;;;;;;14.75;7.10;;;;;;;;;;5070175;28;20071;-80
2022/10/20 03:18:37;;;;;;;14.23;6.63;;;;;;;;;;5068539;28;20816;-80
2022/10/20 03:21:03;;;;;;;15.13;6.68;;;;;;;;;;5053152;28;20068;-80
2022/10/20 03:23:30;;;;;;;14.38;7.05;;;;;;;;;;5070589;28;20044;-79
2022/10/20 03:26:03;;;;;;;11.93;7.32;;;;;;;;;;5070190;28;20044;-79
2022/10/20 03:28:30;;;;;;;15.25;7.75;;;;;;;;;;5070673;28;20046;-82
2022/10/20 03:30:57;;;;;;;18.83;7.63;;;;;;;;;;5069817;28;20045;-82
2022/10/20 03:33:23;;;;;;;14.82;7.53;;;;;;;;;;5068785;28;20048;-81
2022/10/20 03:35:49;;;;;;;16.20;8.02;;;;;;;;;;5070875;28;20049;-82
2022/10/20 03:38:16;;;;;;;15.48;7.72;;;;;;;;;;5070151;28;20053;-80
2022/10/20 03:40:42;;;;;;;16.95;7.68;;;;;;;;;;5073237;28;20044;-81
2022/10/20 03:43:08;;;;;;;17.08;8.10;;;;;;;;;;5076065;28;20060;-80
2022/10/20 03:45:35;;;;;;;13.52;7.65;;;;;;;;;;5079080;28;20048;-81
2022/10/20 03:48:01;;;;;;;14.68;7.50;;;;;;;;;;5057854;28;20488;-80
2022/10/20 03:50:27;;;;;;;17.15;7.75;;;;;;;;;;5063102;28;20155;-81
2022/10/20 03:52:57;;;;;;;13.02;7.35;;;;;;;;;;5082344;28;20048;-80
2022/10/20 03:55:23;;;;;;;12.68;7.80;;;;;;;;;;5082122;28;20132;-80
2022/10/20 03:57:52;;;;;;;18.05;7.18;;;;;;;;;;5079979;28;20049;-81
2022/10/20 04:00:18;;;;;;;18.85;7.80;;;;;;;;;;5075075;28;20417;-80
2022/10/20 04:02:45;;;;;;;15.68;7.60;;;;;;;;;;5078351;28;20115;-79
2022/10/20 04:05:16;;;;;;;13.80;7.40;;;;;;;;;;5082211;28;20127;-80
2022/10/20 04:07:42;;;;;;;14.80;7.53;;;;;;;;;;5080565;28;20059;-79
2022/10/20 04:10:09;;;;;;;18.17;7.55;;;;;;;;;;5080696;28;20052;-78
2022/10/20 04:12:36;;;;;;;13.40;7.55;;;;;;;;;;5062648;28;20111;-80
2022/10/20 04:15:03;;;;;;;15.25;7.25;;;;;;;;;;5079624;28;20048;-81
2022/10/20 04:17:30;;;;;;;17.52;7.40;;;;;;;;;;5079184;28;20076;-80
2022/10/20 04:19:56;;;;;;;13.98;7.63;;;;;;;;;;5079977;28;20451;-81
2022/10/20 04:22:23;;;;;;;14.63;7.35;;;;;;;;;;5080098;28;20147;-80
2022/10/20 04:24:49;;;;;;;18.35;8.07;;;;;;;;;;5061476;28;20059;-80
2022/10/20 04:27:15;;;;;;;15.68;7.45;;;;;;;;;;5060975;28;20350;-80
2022/10/20 04:29:42;;;;;;;13.10;7.20;;;;;;;;;;5080261;28;20052;-80
2022/10/20 04:32:08;;;;;;;15.02;7.15;;;;;;;;;;5082317;28;20044;-78
2022/10/20 04:34:35;;;;;;;15.10;7.60;;;;;;;;;;5083140;28;20048;-80
2022/10/20 04:37:01;;;;;;;16.27;7.63;;;;;;;;;;5057842;28;20318;-79
2022/10/20 04:39:28;;;;;;;18.48;8.20;;;;;;;;;;5078063;28;20048;-79
2022/10/20 04:41:54;;;;;;;19.83;7.70;;;;;;;;;;5083404;28;20048;-80
2022/10/20 04:44:20;;;;;;;13.30;7.75;;;;;;;;;;5084007;28;20108;-80
2022/10/20 04:46:47;;;;;;;16.73;8.18;;;;;;;;;;5078903;28;20052;-81
2022/10/20 04:49:14;;;;;;;13.45;7.40;;;;;;;;;;5075142;28;20283;-80
2022/10/20 04:51:40;;;;;;;14.25;7.50;;;;;;;;;;5058578;28;20044;-81
2022/10/20 04:54:06;;;;;;;17.42;8.27;;;;;;;;;;5081003;28;20064;-81
2022/10/20 04:56:33;;;;;;;17.00;8.13;;;;;;;;;;5080631;28;20056;-78
2022/10/20 04:58:59;;;;;;;16.75;8.98;;;;;;;;;;5082520;28;20060;-79
2022/10/20 05:01:27;;;;;;;18.02;8.80;;;;;;;;;;5074626;28;20052;-78
2022/10/20 05:03:54;;;;;;;18.45;8.18;;;;;;;;;;5077634;28;20112;-79
2022/10/20 05:06:22;;;;;;;14.48;7.90;;;;;;;;;;5082140;28;20052;-76
2022/10/20 05:08:50;;;;;;;21.67;7.93;;;;;;;;;;5062492;28;20049;-79
2022/10/20 05:11:17;;;;;;;17.17;8.43;;;;;;;;;;5081246;28;20122;-78
2022/10/20 05:13:44;;;;;;;18.92;8.98;;;;;;;;;;5088192;28;20100;-78
2022/10/20 05:16:11;;;;;;;18.17;9.60;;;;;;;;;;5094870;28;20121;-80
2022/10/20 05:18:38;;;;;;;16.85;8.73;;;;;;;;;;5091958;28;20074;-79
2022/10/20 05:21:06;;;;;;;17.67;9.15;;;;;;;;;;5094574;28;20040;-78
2022/10/20 05:23:35;;;;;;;16.25;8.40;;;;;;;;;;5091245;28;20059;-80
2022/10/20 05:26:03;;;;;;;15.05;8.25;;;;;;;;;;5076417;28;20551;-81
2022/10/20 05:28:29;;;;;;;17.90;9.15;;;;;;;;;;5074329;28;20052;-80
2022/10/20 05:30:59;;;;;;;17.30;8.52;;;;;;;;;;5057447;28;20052;-81
2022/10/20 05:33:27;;;;;;;20.88;9.40;;;;;;;;;;5083154;28;20098;-81
2022/10/20 05:35:53;;;;;;;18.15;8.88;;;;;;;;;;5088156;28;20386;-80
2022/10/20 05:38:19;;;;;;;17.98;9.60;;;;;;;;;;5080982;28;20051;-80
2022/10/20 05:40:46;;;;;;;22.92;11.05;;;;;;;;;;5079956;28;20057;-80
2022/10/20 05:43:12;;;;;;;20.92;9.57;;;;;;;;;;5080604;28;20041;-80
2022/10/20 05:45:42;;;;;;;16.60;9.27;;;;;;;;;;5062939;28;20056;-80
2022/10/20 05:48:08;;;;;;;16.17;8.35;;;;;;;;;;5080236;28;20052;-80
2022/10/20 05:50:35;;;;;;;21.85;10.02;;;;;;;;;;5084440;28;20053;-80
2022/10/20 05:53:01;;;;;;;22.17;10.15;;;;;;;;;;5080809;28;20075;-80
2022/10/20 05:55:27;;;;;;;28.38;12.60;;;;;;;;;;5079079;28;20104;-80
2022/10/20 05:57:54;;;;;;;27.65;12.82;;;;;;;;;;5079347;28;20052;-80
2022/10/20 06:00:28;;;;;;;23.75;11.27;;;;;;;;;;5079526;28;20131;-80
2022/10/20 06:02:55;;;;;;;26.50;10.80;;;;;;;;;;5081403;28;20039;-79
2022/10/20 06:05:22;;;;;;;23.02;11.13;;;;;;;;;;5081011;28;20242;-80
2022/10/20 06:07:48;;;;;;;19.35;9.65;;;;;;;;;;5081785;28;20104;-80
2022/10/20 06:10:15;;;;;;;20.75;9.23;;;;;;;;;;5078902;28;20076;-80
2022/10/20 06:12:41;;;;;;;20.77;9.98;;;;;;;;;;5070966;28;20045;-80
2022/10/20 06:15:08;;;;;;;20.42;9.65;;;;;;;;;;5071755;28;20577;-81
2022/10/20 06:17:34;;;;;;;19.35;9.55;;;;;;;;;;5070642;28;20452;-80
2022/10/20 06:20:00;;;;;;;18.52;9.52;;;;;;;;;;5072043;28;20046;-81
2022/10/20 06:22:27;;;;;;;18.15;9.02;;;;;;;;;;5072360;28;20052;-79
2022/10/20 06:24:53;;;;;;;20.08;9.52;;;;;;;;;;5074429;28;20049;-80
2022/10/20 06:27:19;;;;;;;16.42;9.15;;;;;;;;;;5077615;28;20049;-80
2022/10/20 06:29:46;;;;;;;18.10;9.57;;;;;;;;;;5073865;28;20054;-80
2022/10/20 06:32:12;;;;;;;23.75;10.55;;;;;;;;;;5072524;28;20047;-81
2022/10/20 06:34:39;;;;;;;18.20;9.75;;;;;;;;;;5074919;28;20055;-79
2022/10/20 06:37:07;;;;;;;17.73;9.85;;;;;;;;;;5084679;28;20059;-80
2022/10/20 06:39:34;;;;;;;19.58;9.70;;;;;;;;;;5075716;28;20055;-81
2022/10/20 06:42:02;;;;;;;20.65;10.55;;;;;;;;;;5071786;28;20055;-82
2022/10/20 06:44:34;;;;;;;15.90;9.70;;;;;;;;;;5071753;28;20124;-81
2022/10/20 06:47:01;;;;;;;20.60;9.68;;;;;;;;;;5070933;28;20523;-80
2022/10/20 06:49:27;;;;;;;18.10;9.18;;;;;;;;;;5069396;28;20052;-81
2022/10/20 06:51:53;;;;;;;22.92;8.73;;;;;;;;;;5072512;28;20083;-81
2022/10/20 06:54:20;;;;;;;26.55;9.70;;;;;;;;;;5071626;28;20045;-81
2022/10/20 06:56:46;;;;;;;21.08;9.45;;;;;;;;;;5071063;28;20435;-82
2022/10/20 06:59:12;;;;;;;19.67;9.07;;;;;;;;;;5071308;28;20512;-81
2022/10/20 07:01:39;;;;;;;21.10;10.65;;;;;;;;;;5072088;28;20080;-80
2022/10/20 07:04:08;;;;;;;24.27;10.43;;;;;;;;;;5069745;28;20079;-81
2022/10/20 07:06:36;;;;;;;21.40;10.10;;;;;;;;;;5072417;28;20048;-81
2022/10/20 07:09:03;;;;;;;17.48;9.95;;;;;;;;;;5072344;28;20555;-81
2022/10/20 07:11:30;;;;;;;19.60;10.07;;;;;;;;;;5071653;28;20120;-80
2022/10/20 07:13:57;;;;;;;20.10;9.85;;;;;;;;;;5073717;28;20063;-80
2022/10/20 07:16:25;;;;;;;17.30;9.00;;;;;;;;;;5072677;28;20135;-80
2022/10/20 07:18:52;;;;;;;16.50;8.93;;;;;;;;;;5071751;28;20056;-81
2022/10/20 07:21:20;;;;;;;16.92;9.00;;;;;;;;;;5081606;28;20468;-81
2022/10/20 07:23:47;;;;;;;15.05;7.82;;;;;;;;;;5080933;28;20574;-80
2022/10/20 07:26:20;;;;;;;16.65;8.27;;;;;;;;;;5081715;28;20041;-79
2022/10/20 07:28:48;;;;;;;14.57;7.72;;;;;;;;;;5088995;28;20076;-80
2022/10/20 07:31:20;;;;;;;14.00;7.32;;;;;;;;;;5092066;28;20048;-81
2022/10/20 07:33:47;;;;;;;16.58;6.57;;;;;;;;;;5080240;28;20465;-81
2022/10/20 07:36:34;;;;;;;15.20;6.53;;;;;;;;;;5079328;28;20059;-81
2022/10/20 07:39:03;;;;;;;11.88;5.45;;;;;;;;;;5084061;28;20484;-81
2022/10/20 07:41:29;;;;;;;10.80;4.88;;;;;;;;;;5082671;28;20108;-82
2022/10/20 07:43:56;;;;;;;10.27;4.40;;;;;;;;;;5081232;28;20222;-81
2022/10/20 07:46:23;;;;;;;8.45;4.82;;;;;;;;;;5082098;28;20417;-79
2022/10/20 07:48:49;;;;;;;7.00;4.13;;;;;;;;;;5076045;28;20045;-81
2022/10/20 07:51:18;;;;;;;5.65;3.47;;;;;;;;;;5075975;28;20048;-79
2022/10/20 07:53:45;;;;;;;6.07;3.03;;;;;;;;;;5075082;28;20447;-79
2022/10/20 07:56:11;;;;;;;7.85;2.80;;;;;;;;;;5076510;28;20108;-80
2022/10/20 07:58:38;;;;;;;4.72;2.78;;;;;;;;;;5075924;28;20052;-79
2022/10/20 08:01:04;;;;;;;7.07;2.92;;;;;;;;;;5086998;28;20028;-79
2022/10/20 08:03:31;;;;;;;4.35;2.28;;;;;;;;;;5092260;28;20388;-80
2022/10/20 08:05:57;;;;;;;5.90;2.22;;;;;;;;;;5080820;28;20068;-80
2022/10/20 08:08:24;;;;;;;5.40;2.30;;;;;;;;;;5074627;28;20047;-80
2022/10/20 08:10:50;;;;;;;7.47;1.90;;;;;;;;;;5075137;28;20290;-80
2022/10/20 08:13:17;;;;;;;7.78;2.30;;;;;;;;;;5076383;28;20059;-81
2022/10/20 08:15:43;;;;;;;9.13;2.22;;;;;;;;;;5074903;28;20556;-80
2022/10/20 08:18:27;;;;;;;6.07;2.10;;;;;;;;;;5066165;28;20176;-80
2022/10/20 08:21:17;;;;;;;3.95;2.05;;;;;;;;;;5075846;28;20040;-80
2022/10/20 08:23:44;;;;;;;7.43;2.05;;;;;;;;;;5074824;28;20055;-79
2022/10/20 08:26:11;;;;;;;3.35;1.95;;;;;;;;;;5075839;28;20099;-80
2022/10/20 08:28:38;;;;;;;5.13;1.98;;;;;;;;;;5075374;28;20079;-79
2022/10/20 08:31:06;;;;;;;5.00;2.22;;;;;;;;;;5074595;28;20052;-80
2022/10/20 08:33:32;;;;;;;3.90;1.95;;;;;;;;;;5074706;28;20053;-80
2022/10/20 08:36:06;;;;;;;3.38;2.00;;;;;;;;;;5076746;28;20079;-81
2022/10/20 08:38:32;;;;;;;4.72;1.85;;;;;;;;;;5075654;28;20080;-80
2022/10/20 08:40:59;;;;;;;7.05;2.17;;;;;;;;;;5075830;28;20052;-80
2022/10/20 08:43:27;;;;;;;6.80;1.92;;;;;;;;;;5076212;28;20052;-80
2022/10/20 08:45:53;;;;;;;7.05;2.13;;;;;;;;;;5086000;28;20058;-81
2022/10/20 08:48:22;;;;;;;5.82;2.00;;;;;;;;;;5094941;28;20060;-79
2022/10/20 08:50:50;;;;;;;5.32;2.00;;;;;;;;;;5094792;28;20078;-79
2022/10/20 08:53:18;;;;;;;5.25;1.90;;;;;;;;;;5075514;28;20384;-80
2022/10/20 08:55:45;;;;;;;2.78;1.77;;;;;;;;;;5075173;28;20540;-80
2022/10/20 08:58:15;;;;;;;6.63;1.85;;;;;;;;;;5074211;28;20045;-81
2022/10/20 09:00:42;;;;;;;5.85;1.60;;;;;;;;;;5073893;28;20483;-81
2022/10/20 09:03:20;;;;;;;4.78;1.60;;;;;;;;;;5073579;28;20040;-79
2022/10/20 09:05:49;;;;;;;3.20;1.50;;;;;;;;;;5079503;28;20480;-80
2022/10/20 09:08:17;;;;;;;2.90;1.35;;;;;;;;;;5078024;28;20052;-79
2022/10/20 09:10:46;;;;;;;5.38;1.58;;;;;;;;;;5079192;28;20514;-80
2022/10/20 09:13:23;;;;;;;5.00;1.45;;;;;;;;;;5073566;28;20052;-79
2022/10/20 09:15:51;;;;;;;4.47;1.50;;;;;;;;;;5071119;28;20508;-79
2022/10/20 09:18:19;;;;;;;3.15;1.50;;;;;;;;;;5068847;28;20049;-80
2022/10/20 09:20:48;;;;;;;4.20;1.30;;;;;;;;;;5071007;28;20070;-80
2022/10/20 09:23:16;;;;;;;2.75;1.38;;;;;;;;;;5072629;28;20049;-79
2022/10/20 09:26:03;;;;;;;3.08;1.30;;;;;;;;;;5071979;28;20059;-80
2022/10/20 09:28:29;;;;;;;2.78;1.30;;;;;;;;;;5069422;28;20432;-79
2022/10/20 09:31:39;;;;;;;2.72;1.30;;;;;;;;;;5071478;28;20137;-80
2022/10/20 09:34:25;;;;;;;6.00;1.40;;;;;;;;;;5066047;28;20369;-78
2022/10/20 09:36:56;;;;;;;2.40;1.10;;;;;;;;;;5070473;28;20052;-78
2022/10/20 09:39:25;;;;;;;5.38;1.20;;;;;;;;;;5071114;28;20048;-79
2022/10/20 09:41:58;;;;;;;3.67;1.30;;;;;;;;;;5071601;28;20049;-78
2022/10/20 09:44:24;;;;;;;3.85;1.25;;;;;;;;;;5069800;28;20056;-79
2022/10/20 09:46:52;;;;;;;2.38;1.27;;;;;;;;;;5069578;28;20416;-79
2022/10/20 09:49:27;;;;;;;2.53;1.15;;;;;;;;;;5069959;28;20045;-80
2022/10/20 09:51:54;;;;;;;3.03;1.20;;;;;;;;;;5072396;28;20045;-80
2022/10/20 09:54:22;;;;;;;1.83;1.02;;;;;;;;;;5072448;28;20075;-80
2022/10/20 09:56:48;;;;;;;3.63;1.40;;;;;;;;;;5071323;28;20159;-80
2022/10/20 09:59:24;;;;;;;3.05;1.30;;;;;;;;;;5047890;28;20058;-81
2022/10/20 10:01:57;;;;;;;2.58;1.17;;;;;;;;;;5071974;28;20127;-79
2022/10/20 10:04:29;;;;;;;3.60;1.50;;;;;;;;;;5055804;28;20044;-79
2022/10/20 10:06:56;;;;;;;2.88;1.20;;;;;;;;;;5076940;28;20076;-80
2022/10/20 10:09:33;;;;;;;2.63;1.27;;;;;;;;;;5073639;28;20067;-81
2022/10/20 10:12:12;;;;;;;7.25;1.23;;;;;;;;;;5073105;28;20507;-79
2022/10/20 10:14:48;;;;;;;3.50;1.33;;;;;;;;;;5073076;28;20056;-80
2022/10/20 10:17:50;;;;;;;2.97;1.02;;;;;;;;;;5073130;28;20059;-80
2022/10/20 10:20:43;;;;;;;4.60;1.45;;;;;;;;;;5013646;28;20112;-81
2022/10/20 10:23:24;;;;;;;3.10;1.27;;;;;;;;;;5074015;28;20053;-80
2022/10/20 10:25:51;;;;;;;4.03;1.15;;;;;;;;;;5075223;28;20054;-81
2022/10/20 10:28:29;;;;;;;2.03;1.15;;;;;;;;;;5074553;28;20139;-79
2022/10/20 10:31:14;;;;;;;3.25;1.10;;;;;;;;;;5074671;28;20048;-79
2022/10/20 10:33:41;;;;;;;2.90;1.08;;;;;;;;;;5075265;28;20087;-80
2022/10/20 10:36:13;;;;;;;2.33;1.30;;;;;;;;;;5075400;28;20052;-80
2022/10/20 10:38:39;;;;;;;3.28;1.13;;;;;;;;;;5079487;28;20107;-81
2022/10/20 10:41:29;;;;;;;3.90;1.30;;;;;;;;;;5082055;28;20088;-79
2022/10/20 10:44:01;;;;;;;3.65;1.30;;;;;;;;;;5086512;28;20059;-79
2022/10/20 10:46:35;;;;;;;2.35;1.10;;;;;;;;;;5090054;28;20048;-79
2022/10/20 10:49:14;;;;;;;2.95;1.20;;;;;;;;;;5083564;28;20040;-81
2022/10/20 10:51:48;;;;;;;6.07;1.27;;;;;;;;;;5080768;28;20064;-79
2022/10/20 10:54:23;;;;;;;2.28;1.27;;;;;;;;;;5084467;28;20067;-81
2022/10/20 10:56:54;;;;;;;2.30;1.23;;;;;;;;;;5082529;28;20422;-81
2022/10/20 10:59:40;;;;;;;4.70;1.20;;;;;;;;;;5077381;28;20052;-80
2022/10/20 11:02:21;;;;;;;2.00;1.17;;;;;;;;;;5077457;28;20166;-81
2022/10/20 11:05:00;;;;;;;10.13;1.80;;;;;;;;;;5077763;28;20045;-81
2022/10/20 11:07:41;;;;;;;3.97;1.23;;;;;;;;;;5077623;28;20052;-81
2022/10/20 11:10:31;;;;;;;3.05;1.40;;;;;;;;;;5077739;28;20072;-80
2022/10/20 11:13:16;;;;;;;4.22;1.33;;;;;;;;;;5072961;28;20058;-79
2022/10/20 11:16:06;;;;;;;3.22;1.35;;;;;;;;;;5078722;28;20063;-81
2022/10/20 11:18:32;;;;;;;3.30;1.33;;;;;;;;;;5057659;28;20052;-81
2022/10/20 11:21:04;;;;;;;4.85;1.45;;;;;;;;;;5078629;28;20059;-80
2022/10/20 11:23:37;;;;;;;3.17;1.60;;;;;;;;;;5078162;28;20054;-80
2022/10/20 11:26:12;;;;;;;2.28;1.38;;;;;;;;;;5060602;28;20127;-81
2022/10/20 11:28:47;;;;;;;2.63;1.60;;;;;;;;;;5073790;28;20131;-79
2022/10/20 11:31:17;;;;;;;4.65;1.35;;;;;;;;;;5070333;28;20059;-81
2022/10/20 11:33:46;;;;;;;5.43;1.40;;;;;;;;;;5068963;28;20496;-80
2022/10/20 11:36:17;;;;;;;3.17;1.50;;;;;;;;;;5070082;28;20140;-79
2022/10/20 11:38:43;;;;;;;3.75;1.55;;;;;;;;;;5069807;28;20084;-77
2022/10/20 11:41:15;;;;;;;3.20;1.50;;;;;;;;;;5070399;28;20052;-81
2022/10/20 11:43:47;;;;;;;4.97;1.50;;;;;;;;;;5053383;28;20135;-79
2022/10/20 11:46:16;;;;;;;4.30;1.40;;;;;;;;;;5053577;28;20345;-81
2022/10/20 11:48:42;;;;;;;2.88;1.40;;;;;;;;;;5070859;28;20053;-80
2022/10/20 11:51:27;;;;;;;2.50;1.40;;;;;;;;;;5071779;28;20067;-80
2022/10/20 11:54:13;;;;;;;2.40;1.50;;;;;;;;;;5071153;28;20062;-80
2022/10/20 11:56:45;;;;;;;3.00;1.30;;;;;;;;;;5070154;28;20044;-79
2022/10/20 11:59:30;;;;;;;4.57;1.30;;;;;;;;;;5069590;28;20048;-79
2022/10/20 12:02:15;;;;;;;4.03;1.33;;;;;;;;;;5071686;28;20055;-82
2022/10/20 12:04:45;;;;;;;3.85;1.50;;;;;;;;;;5072446;28;20067;-81
2022/10/20 12:07:11;;;;;;;3.38;1.20;;;;;;;;;;5074687;28;20059;-79
2022/10/20 12:09:38;;;;;;;3.33;1.42;;;;;;;;;;5076732;28;20044;-80
2022/10/20 12:12:08;;;;;;;1.88;1.15;;;;;;;;;;5081614;28;20055;-79
2022/10/20 12:14:40;;;;;;;2.67;1.33;;;;;;;;;;5091952;28;20041;-80
2022/10/20 12:17:25;;;;;;;3.63;1.20;;;;;;;;;;5096302;28;20056;-80
2022/10/20 12:20:11;;;;;;;4.32;1.30;;;;;;;;;;5082020;28;20419;-80
2022/10/20 12:22:39;;;;;;;3.38;1.50;;;;;;;;;;5073519;28;20053;-80
2022/10/20 12:25:06;;;;;;;4.45;1.40;;;;;;;;;;5056909;28;20040;-81
2022/10/20 12:27:32;;;;;;;3.45;1.30;;;;;;;;;;5073650;28;20144;-80
2022/10/20 12:30:00;;;;;;;3.72;1.30;;;;;;;;;;5074125;28;20071;-79
2022/10/20 12:32:26;;;;;;;2.65;1.25;;;;;;;;;;5074242;28;20052;-78
2022/10/20 12:34:57;;;;;;;2.25;1.40;;;;;;;;;;5071719;28;20049;-79
2022/10/20 12:37:23;;;;;;;3.55;1.50;;;;;;;;;;5070266;28;20055;-79
2022/10/20 12:39:51;;;;;;;3.70;1.30;;;;;;;;;;5071079;28;20048;-79
2022/10/20 12:42:22;;;;;;;7.20;1.80;;;;;;;;;;5057562;28;20313;-80
2022/10/20 12:44:49;;;;;;;1.95;1.30;;;;;;;;;;5053999;28;20051;-79
2022/10/20 12:47:22;;;;;;;4.75;1.40;;;;;;;;;;5070891;28;20044;-80
2022/10/20 12:49:59;;;;;;;2.47;1.45;;;;;;;;;;5072077;28;20044;-82
2022/10/20 12:52:28;;;;;;;7.28;1.60;;;;;;;;;;5075936;28;20090;-81
2022/10/20 12:54:58;;;;;;;3.33;1.55;;;;;;;;;;5082057;28;20059;-81
2022/10/20 12:57:25;;;;;;;4.20;1.45;;;;;;;;;;5062457;28;20094;-81
2022/10/20 12:59:51;;;;;;;2.42;1.50;;;;;;;;;;5081755;28;20127;-82
2022/10/20 13:02:21;;;;;;;3.72;1.42;;;;;;;;;;5082670;28;20051;-80
2022/10/20 13:05:06;;;;;;;3.92;1.10;;;;;;;;;;5077800;28;20045;-80
2022/10/20 13:07:44;;;;;;;5.15;1.70;;;;;;;;;;5081588;28;20148;-79
2022/10/20 13:10:27;;;;;;;5.45;1.58;;;;;;;;;;5082789;28;20059;-79
2022/10/20 13:12:54;;;;;;;2.70;1.35;;;;;;;;;;5080087;28;20135;-81
2022/10/20 13:15:21;;;;;;;2.92;1.48;;;;;;;;;;5080261;28;20051;-80
2022/10/20 13:17:51;;;;;;;2.97;1.27;;;;;;;;;;5070317;28;20219;-77
2022/10/20 13:20:21;;;;;;;2.42;1.35;;;;;;;;;;5070681;28;20051;-78
2022/10/20 13:22:52;;;;;;;3.78;1.20;;;;;;;;;;5068495;28;20040;-79
2022/10/20 13:25:31;;;;;;;3.10;1.60;;;;;;;;;;5071129;28;20305;-79
2022/10/20 13:28:05;;;;;;;3.55;1.23;;;;;;;;;;5071291;28;20342;-79
2022/10/20 13:30:32;;;;;;;5.70;1.30;;;;;;;;;;5070671;28;20049;-78
2022/10/20 13:32:59;;;;;;;3.08;1.20;;;;;;;;;;5070525;28;20063;-79
2022/10/20 13:35:52;;;;;;;4.07;1.48;;;;;;;;;;5068764;28;20063;-79
2022/10/20 13:38:21;;;;;;;4.30;1.30;;;;;;;;;;5070397;28;20048;-79
2022/10/20 13:40:57;;;;;;;3.65;1.35;;;;;;;;;;5070703;28;20424;-79
2022/10/20 13:43:31;;;;;;;3.15;1.40;;;;;;;;;;5067950;28;20076;-80
2022/10/20 13:46:03;;;;;;;3.20;1.45;;;;;;;;;;5071594;28;20054;-80
2022/10/20 13:48:42;;;;;;;8.10;1.50;;;;;;;;;;5066652;28;20052;-79
2022/10/20 13:51:23;;;;;;;4.35;1.25;;;;;;;;;;5068442;28;20047;-80
2022/10/20 13:53:51;;;;;;;8.23;1.38;;;;;;;;;;5050788;28;20484;-79
2022/10/20 13:56:41;;;;;;;2.92;1.40;;;;;;;;;;5052585;28;20048;-77
2022/10/20 13:59:10;;;;;;;4.68;1.50;;;;;;;;;;5060908;28;20052;-78
2022/10/20 14:01:37;;;;;;;3.72;1.55;;;;;;;;;;5070514;28;20060;-79
2022/10/20 14:04:22;;;;;;;3.63;1.80;;;;;;;;;;5066474;28;20191;-79
2022/10/20 14:06:48;;;;;;;3.65;1.80;;;;;;;;;;5070756;28;20052;-79
2022/10/20 14:09:23;;;;;;;4.57;1.85;;;;;;;;;;5070181;28;20040;-79
2022/10/20 14:12:01;;;;;;;6.07;1.55;;;;;;;;;;5068662;28;20037;-79
2022/10/20 14:14:28;;;;;;;7.57;2.00;;;;;;;;;;5068241;28;20489;-79
2022/10/20 14:16:57;;;;;;;3.40;1.75;;;;;;;;;;5070782;28;20054;-79
2022/10/20 14:19:27;;;;;;;4.22;1.73;;;;;;;;;;5071261;28;20057;-80
2022/10/20 14:21:58;;;;;;;5.00;1.63;;;;;;;;;;5072759;28;20052;-79
2022/10/20 14:24:29;;;;;;;5.43;1.85;;;;;;;;;;5074239;28;20052;-79
2022/10/20 14:26:58;;;;;;;5.88;1.83;;;;;;;;;;5074378;28;20052;-79
2022/10/20 14:29:36;;;;;;;5.70;2.03;;;;;;;;;;5054913;28;20051;-80
2022/10/20 14:32:03;;;;;;;7.95;1.80;;;;;;;;;;5072934;28;20429;-78
2022/10/20 14:34:32;;;;;;;6.25;2.00;;;;;;;;;;5071208;28;20059;-81
2022/10/20 14:36:58;;;;;;;3.42;1.70;;;;;;;;;;5073402;28;20491;-80
2022/10/20 14:39:36;;;;;;;2.70;1.42;;;;;;;;;;5074359;28;20060;-80
2022/10/20 14:42:04;;;;;;;3.95;1.70;;;;;;;;;;5076151;28;20048;-78
2022/10/20 14:44:31;;;;;;;3.40;1.85;;;;;;;;;;5074965;28;20376;-79
2022/10/20 14:46:59;;;;;;;3.47;1.50;;;;;;;;;;5073648;28;20557;-79
2022/10/20 14:49:28;;;;;;;5.43;1.80;;;;;;;;;;5074820;28;20633;-79
2022/10/20 14:51:54;;;;;;;5.68;1.83;;;;;;;;;;5073907;28;20552;-80
2022/10/20 14:54:25;;;;;;;4.15;2.05;;;;;;;;;;5071996;28;20059;-80
2022/10/20 14:56:53;;;;;;;5.30;2.28;;;;;;;;;;5070937;28;20044;-80